sensor_id;sensor_type;location;lat;lon;timestamp;temperature;humidity
3069;DHT22;1545;51.728;8.796;2022-11-18T00:01:16;8.80;98.80
3069;DHT22;1545;51.728;8.796;2022-11-18T00:03:42;8.80;98.80
3069;DHT22;1545;51.728;8.796;2022-11-18T00:06:13;8.80;98.80
3069;DHT22;1545;51.728;8.796;2022-11-18T00:08:40;8.80;98.80
3069;DHT22;1545;51.728;8.796;2022-11-18T00:11:07;8.90;98.80
3069;DHT22;1545;51.728;8.796;2022-11-18T00:13:33;8.90;98.80
3069;DHT22;1545;51.728;8.796;2022-11-18T00:16:17;8.90;98.80
3069;DHT22;1545;51.728;8.796;2022-11-18T00:18:42;8.90;98.80
3069;DHT22;1545;51.728;8.796;2022-11-18T00:21:10;8.80;98.80
3069;DHT22;1545;51.728;8.796;2022-11-18T00:23:36;8.70;98.80
3069;DHT22;1545;51.728;8.796;2022-11-18T00:26:03;8.70;98.80
3069;DHT22;1545;51.728;8.796;2022-11-18T00:28:29;8.60;98.80
3069;DHT22;1545;51.728;8.796;2022-11-18T00:31:06;8.60;98.80
3069;DHT22;1545;51.728;8.796;2022-11-18T00:33:32;8.60;98.80
3069;DHT22;1545;51.728;8.796;2022-11-18T00:35:58;8.60;98.80
3069;DHT22;1545;51.728;8.796;2022-11-18T00:38:24;8.50;98.80
3069;DHT22;1545;51.728;8.796;2022-11-18T00:41:03;8.50;98.80
3069;DHT22;1545;51.728;8.796;2022-11-18T00:43:30;8.40;98.80
3069;DHT22;1545;51.728;8.796;2022-11-18T00:45:56;8.40;98.80
3069;DHT22;1545;51.728;8.796;2022-11-18T00:48:22;8.30;98.80
3069;DHT22;1545;51.728;8.796;2022-11-18T00:50:52;8.20;98.80
3069;DHT22;1545;51.728;8.796;2022-11-18T00:53:19;8.10;98.80
3069;DHT22;1545;51.728;8.796;2022-11-18T00:55:45;8.10;98.80
3069;DHT22;1545;51.728;8.796;2022-11-18T00:58:11;8.10;98.80
3069;DHT22;1545;51.728;8.796;2022-11-18T01:00:40;8.00;98.80
3069;DHT22;1545;51.728;8.796;2022-11-18T01:03:06;7.90;98.80
3069;DHT22;1545;51.728;8.796;2022-11-18T01:05:32;7.90;98.80
3069;DHT22;1545;51.728;8.796;2022-11-18T01:07:58;8.00;98.80
3069;DHT22;1545;51.728;8.796;2022-11-18T01:10:23;8.10;98.80
3069;DHT22;1545;51.728;8.796;2022-11-18T01:12:49;8.20;98.80
3069;DHT22;1545;51.728;8.796;2022-11-18T01:15:44;8.20;98.80
3069;DHT22;1545;51.728;8.796;2022-11-18T01:18:10;8.30;98.80
3069;DHT22;1545;51.728;8.796;2022-11-18T01:20:36;8.30;98.80
3069;DHT22;1545;51.728;8.796;2022-11-18T01:23:02;8.30;98.80
3069;DHT22;1545;51.728;8.796;2022-11-18T01:25:28;8.40;98.80
3069;DHT22;1545;51.728;8.796;2022-11-18T01:27:54;8.50;98.80
3069;DHT22;1545;51.728;8.796;2022-11-18T01:30:20;8.50;98.80
3069;DHT22;1545;51.728;8.796;2022-11-18T01:32:46;8.50;98.80
3069;DHT22;1545;51.728;8.796;2022-11-18T01:35:12;8.50;98.80
3069;DHT22;1545;51.728;8.796;2022-11-18T01:37:38;8.50;98.80
3069;DHT22;1545;51.728;8.796;2022-11-18T01:40:05;8.60;98.80
3069;DHT22;1545;51.728;8.796;2022-11-18T01:42:31;8.60;98.80
3069;DHT22;1545;51.728;8.796;2022-11-18T01:47:26;8.70;98.80
3069;DHT22;1545;51.728;8.796;2022-11-18T01:49:53;8.70;98.80
3069;DHT22;1545;51.728;8.796;2022-11-18T01:52:19;8.70;98.80
3069;DHT22;1545;51.728;8.796;2022-11-18T01:54:48;8.60;98.80
3069;DHT22;1545;51.728;8.796;2022-11-18T01:57:19;8.60;98.80
3069;DHT22;1545;51.728;8.796;2022-11-18T01:59:49;8.60;98.80
3069;DHT22;1545;51.728;8.796;2022-11-18T02:02:15;8.60;98.80
3069;DHT22;1545;51.728;8.796;2022-11-18T02:04:43;8.50;98.80
3069;DHT22;1545;51.728;8.796;2022-11-18T02:07:12;8.50;98.80
3069;DHT22;1545;51.728;8.796;2022-11-18T02:09:38;8.50;98.80
3069;DHT22;1545;51.728;8.796;2022-11-18T02:12:04;8.50;98.80
3069;DHT22;1545;51.728;8.796;2022-11-18T02:14:36;8.50;98.80
3069;DHT22;1545;51.728;8.796;2022-11-18T02:17:36;8.50;98.80
3069;DHT22;1545;51.728;8.796;2022-11-18T02:20:16;8.50;98.80
3069;DHT22;1545;51.728;8.796;2022-11-18T02:31:09;8.40;98.80
3069;DHT22;1545;51.728;8.796;2022-11-18T02:33:42;8.40;98.80
3069;DHT22;1545;51.728;8.796;2022-11-18T02:36:30;8.40;98.80
3069;DHT22;1545;51.728;8.796;2022-11-18T02:39:07;8.30;98.80
3069;DHT22;1545;51.728;8.796;2022-11-18T02:41:34;8.30;98.80
3069;DHT22;1545;51.728;8.796;2022-11-18T02:44:08;8.30;98.80
3069;DHT22;1545;51.728;8.796;2022-11-18T02:46:38;8.30;98.80
3069;DHT22;1545;51.728;8.796;2022-11-18T02:49:09;8.30;98.80
3069;DHT22;1545;51.728;8.796;2022-11-18T02:51:37;8.30;98.80
3069;DHT22;1545;51.728;8.796;2022-11-18T02:54:06;8.20;98.80
3069;DHT22;1545;51.728;8.796;2022-11-18T02:56:33;8.20;98.80
3069;DHT22;1545;51.728;8.796;2022-11-18T02:59:00;8.20;98.80
3069;DHT22;1545;51.728;8.796;2022-11-18T03:01:28;8.10;98.80
3069;DHT22;1545;51.728;8.796;2022-11-18T03:03:55;8.10;98.80
3069;DHT22;1545;51.728;8.796;2022-11-18T03:06:36;8.00;98.80
3069;DHT22;1545;51.728;8.796;2022-11-18T03:11:30;7.90;98.80
3069;DHT22;1545;51.728;8.796;2022-11-18T03:14:27;7.90;98.80
3069;DHT22;1545;51.728;8.796;2022-11-18T03:19:55;7.90;98.80
3069;DHT22;1545;51.728;8.796;2022-11-18T03:22:51;7.90;98.80
3069;DHT22;1545;51.728;8.796;2022-11-18T03:25:26;7.90;98.80
3069;DHT22;1545;51.728;8.796;2022-11-18T03:28:17;7.90;98.80
3069;DHT22;1545;51.728;8.796;2022-11-18T03:30:49;8.00;98.80
3069;DHT22;1545;51.728;8.796;2022-11-18T03:33:23;7.90;98.80
3069;DHT22;1545;51.728;8.796;2022-11-18T03:35:51;7.90;98.80
3069;DHT22;1545;51.728;8.796;2022-11-18T03:38:24;7.90;98.80
3069;DHT22;1545;51.728;8.796;2022-11-18T03:40:54;7.90;98.80
3069;DHT22;1545;51.728;8.796;2022-11-18T03:43:24;7.80;98.80
3069;DHT22;1545;51.728;8.796;2022-11-18T03:46:01;7.80;98.80
3069;DHT22;1545;51.728;8.796;2022-11-18T03:48:33;7.80;98.80
3069;DHT22;1545;51.728;8.796;2022-11-18T03:51:04;7.90;98.80
3069;DHT22;1545;51.728;8.796;2022-11-18T03:53:33;7.90;98.80
3069;DHT22;1545;51.728;8.796;2022-11-18T03:56:14;7.90;98.80
3069;DHT22;1545;51.728;8.796;2022-11-18T03:58:59;7.90;98.80
3069;DHT22;1545;51.728;8.796;2022-11-18T04:01:32;8.00;98.80
3069;DHT22;1545;51.728;8.796;2022-11-18T04:03:59;8.00;98.80
3069;DHT22;1545;51.728;8.796;2022-11-18T04:06:32;8.00;98.80
3069;DHT22;1545;51.728;8.796;2022-11-18T04:09:02;8.10;98.80
3069;DHT22;1545;51.728;8.796;2022-11-18T04:11:34;8.10;98.80
3069;DHT22;1545;51.728;8.796;2022-11-18T04:14:20;8.10;98.80
3069;DHT22;1545;51.728;8.796;2022-11-18T04:16:50;8.10;98.80
3069;DHT22;1545;51.728;8.796;2022-11-18T04:19:16;8.10;98.80
3069;DHT22;1545;51.728;8.796;2022-11-18T04:21:46;8.20;98.80
3069;DHT22;1545;51.728;8.796;2022-11-18T04:24:12;8.10;98.80
3069;DHT22;1545;51.728;8.796;2022-11-18T04:26:38;8.20;98.80
3069;DHT22;1545;51.728;8.796;2022-11-18T04:29:03;8.20;98.80
3069;DHT22;1545;51.728;8.796;2022-11-18T04:31:29;8.20;98.80
3069;DHT22;1545;51.728;8.796;2022-11-18T04:33:55;8.20;98.80
3069;DHT22;1545;51.728;8.796;2022-11-18T04:36:20;8.20;98.80
3069;DHT22;1545;51.728;8.796;2022-11-18T04:38:46;8.30;98.80
3069;DHT22;1545;51.728;8.796;2022-11-18T04:41:11;8.30;98.80
3069;DHT22;1545;51.728;8.796;2022-11-18T04:43:37;8.30;98.80
3069;DHT22;1545;51.728;8.796;2022-11-18T04:46:06;8.40;98.80
3069;DHT22;1545;51.728;8.796;2022-11-18T04:48:31;8.40;98.80
3069;DHT22;1545;51.728;8.796;2022-11-18T04:50:57;8.40;98.80
3069;DHT22;1545;51.728;8.796;2022-11-18T04:53:22;8.40;98.80
3069;DHT22;1545;51.728;8.796;2022-11-18T04:55:48;8.40;98.80
3069;DHT22;1545;51.728;8.796;2022-11-18T04:58:14;8.40;98.80
3069;DHT22;1545;51.728;8.796;2022-11-18T05:00:39;8.40;98.80
3069;DHT22;1545;51.728;8.796;2022-11-18T05:03:05;8.30;98.80
3069;DHT22;1545;51.728;8.796;2022-11-18T05:05:33;8.30;98.80
3069;DHT22;1545;51.728;8.796;2022-11-18T05:07:59;8.30;98.80
3069;DHT22;1545;51.728;8.796;2022-11-18T05:10:24;8.20;98.80
3069;DHT22;1545;51.728;8.796;2022-11-18T05:12:50;8.20;98.80
3069;DHT22;1545;51.728;8.796;2022-11-18T05:15:18;8.20;98.80
3069;DHT22;1545;51.728;8.796;2022-11-18T05:17:44;8.30;98.80
3069;DHT22;1545;51.728;8.796;2022-11-18T05:20:10;8.20;98.80
3069;DHT22;1545;51.728;8.796;2022-11-18T05:22:36;8.20;98.80
3069;DHT22;1545;51.728;8.796;2022-11-18T05:25:02;8.10;98.80
3069;DHT22;1545;51.728;8.796;2022-11-18T05:27:28;8.10;98.80
3069;DHT22;1545;51.728;8.796;2022-11-18T05:29:53;8.00;98.80
3069;DHT22;1545;51.728;8.796;2022-11-18T05:32:19;8.00;98.80
3069;DHT22;1545;51.728;8.796;2022-11-18T05:34:44;7.90;98.80
3069;DHT22;1545;51.728;8.796;2022-11-18T05:37:10;7.90;98.80
3069;DHT22;1545;51.728;8.796;2022-11-18T05:39:36;7.80;98.80
3069;DHT22;1545;51.728;8.796;2022-11-18T05:42:01;7.70;98.80
3069;DHT22;1545;51.728;8.796;2022-11-18T05:44:45;7.80;98.80
3069;DHT22;1545;51.728;8.796;2022-11-18T05:47:11;7.70;98.80
3069;DHT22;1545;51.728;8.796;2022-11-18T05:49:36;7.70;98.80
3069;DHT22;1545;51.728;8.796;2022-11-18T05:52:02;7.70;98.80
3069;DHT22;1545;51.728;8.796;2022-11-18T05:54:28;7.60;98.80
3069;DHT22;1545;51.728;8.796;2022-11-18T05:56:54;7.70;98.80
3069;DHT22;1545;51.728;8.796;2022-11-18T05:59:19;7.70;98.80
3069;DHT22;1545;51.728;8.796;2022-11-18T06:02:12;7.70;98.80
3069;DHT22;1545;51.728;8.796;2022-11-18T06:04:39;7.70;98.80
3069;DHT22;1545;51.728;8.796;2022-11-18T06:07:09;7.60;98.80
3069;DHT22;1545;51.728;8.796;2022-11-18T06:09:39;7.70;98.80
3069;DHT22;1545;51.728;8.796;2022-11-18T06:12:06;7.70;98.80
3069;DHT22;1545;51.728;8.796;2022-11-18T06:14:42;7.70;98.80
3069;DHT22;1545;51.728;8.796;2022-11-18T06:17:13;7.70;98.80
3069;DHT22;1545;51.728;8.796;2022-11-18T06:19:40;7.70;98.80
3069;DHT22;1545;51.728;8.796;2022-11-18T06:22:06;7.70;98.80
3069;DHT22;1545;51.728;8.796;2022-11-18T06:24:33;7.80;98.80
3069;DHT22;1545;51.728;8.796;2022-11-18T06:26:59;7.80;98.80
3069;DHT22;1545;51.728;8.796;2022-11-18T06:29:24;7.90;98.80
3069;DHT22;1545;51.728;8.796;2022-11-18T06:31:50;7.90;98.80
3069;DHT22;1545;51.728;8.796;2022-11-18T06:34:16;8.00;98.80
3069;DHT22;1545;51.728;8.796;2022-11-18T06:36:41;8.00;98.80
3069;DHT22;1545;51.728;8.796;2022-11-18T06:39:07;8.10;98.80
3069;DHT22;1545;51.728;8.796;2022-11-18T06:41:32;8.10;98.80
3069;DHT22;1545;51.728;8.796;2022-11-18T06:43:58;8.10;98.80
3069;DHT22;1545;51.728;8.796;2022-11-18T06:46:24;8.20;98.80
3069;DHT22;1545;51.728;8.796;2022-11-18T06:49:08;8.30;98.80
3069;DHT22;1545;51.728;8.796;2022-11-18T06:51:34;8.30;98.80
3069;DHT22;1545;51.728;8.796;2022-11-18T06:53:59;8.30;98.80
3069;DHT22;1545;51.728;8.796;2022-11-18T06:56:25;8.30;98.80
3069;DHT22;1545;51.728;8.796;2022-11-18T06:58:55;8.30;98.80
3069;DHT22;1545;51.728;8.796;2022-11-18T07:01:23;8.30;98.80
3069;DHT22;1545;51.728;8.796;2022-11-18T07:03:49;8.30;98.80
3069;DHT22;1545;51.728;8.796;2022-11-18T07:06:21;8.20;98.80
3069;DHT22;1545;51.728;8.796;2022-11-18T07:08:47;8.20;98.80
3069;DHT22;1545;51.728;8.796;2022-11-18T07:11:16;8.20;98.80
3069;DHT22;1545;51.728;8.796;2022-11-18T07:13:42;8.20;98.80
3069;DHT22;1545;51.728;8.796;2022-11-18T07:16:10;8.20;98.80
3069;DHT22;1545;51.728;8.796;2022-11-18T07:18:37;8.20;98.80
3069;DHT22;1545;51.728;8.796;2022-11-18T07:21:05;8.20;98.80
3069;DHT22;1545;51.728;8.796;2022-11-18T07:23:31;8.20;98.80
3069;DHT22;1545;51.728;8.796;2022-11-18T07:25:57;8.20;98.80
3069;DHT22;1545;51.728;8.796;2022-11-18T07:28:24;8.20;98.80
3069;DHT22;1545;51.728;8.796;2022-11-18T07:30:50;8.20;98.80
3069;DHT22;1545;51.728;8.796;2022-11-18T07:33:16;8.20;98.80
3069;DHT22;1545;51.728;8.796;2022-11-18T07:35:41;8.30;98.80
3069;DHT22;1545;51.728;8.796;2022-11-18T07:38:07;8.30;98.80
3069;DHT22;1545;51.728;8.796;2022-11-18T07:40:32;8.30;98.80
3069;DHT22;1545;51.728;8.796;2022-11-18T07:42:58;8.30;98.80
3069;DHT22;1545;51.728;8.796;2022-11-18T07:45:23;8.30;98.80
3069;DHT22;1545;51.728;8.796;2022-11-18T07:47:49;8.30;98.80
3069;DHT22;1545;51.728;8.796;2022-11-18T07:50:16;8.30;98.80
3069;DHT22;1545;51.728;8.796;2022-11-18T07:52:42;8.40;98.80
3069;DHT22;1545;51.728;8.796;2022-11-18T07:55:07;8.40;98.80
3069;DHT22;1545;51.728;8.796;2022-11-18T07:57:33;8.40;98.80
3069;DHT22;1545;51.728;8.796;2022-11-18T07:59:58;8.40;98.80
3069;DHT22;1545;51.728;8.796;2022-11-18T08:02:24;8.40;98.80
3069;DHT22;1545;51.728;8.796;2022-11-18T08:04:49;8.40;98.80
3069;DHT22;1545;51.728;8.796;2022-11-18T08:07:15;8.40;98.80
3069;DHT22;1545;51.728;8.796;2022-11-18T08:09:40;8.40;98.80
3069;DHT22;1545;51.728;8.796;2022-11-18T08:12:06;8.50;98.80
3069;DHT22;1545;51.728;8.796;2022-11-18T08:14:32;8.50;98.80
3069;DHT22;1545;51.728;8.796;2022-11-18T08:16:57;8.50;98.80
3069;DHT22;1545;51.728;8.796;2022-11-18T08:19:23;8.60;98.80
3069;DHT22;1545;51.728;8.796;2022-11-18T08:21:49;8.60;98.80
3069;DHT22;1545;51.728;8.796;2022-11-18T08:24:14;8.60;98.80
3069;DHT22;1545;51.728;8.796;2022-11-18T08:26:40;8.60;98.80
3069;DHT22;1545;51.728;8.796;2022-11-18T08:29:05;8.60;98.80
3069;DHT22;1545;51.728;8.796;2022-11-18T08:31:31;8.60;98.80
3069;DHT22;1545;51.728;8.796;2022-11-18T08:33:58;8.70;98.80
3069;DHT22;1545;51.728;8.796;2022-11-18T08:36:26;8.80;98.80
3069;DHT22;1545;51.728;8.796;2022-11-18T08:38:54;8.90;98.80
3069;DHT22;1545;51.728;8.796;2022-11-18T08:41:28;9.00;98.80
3069;DHT22;1545;51.728;8.796;2022-11-18T08:43:55;9.20;98.80
3069;DHT22;1545;51.728;8.796;2022-11-18T08:46:21;9.30;98.80
3069;DHT22;1545;51.728;8.796;2022-11-18T08:48:47;9.40;98.80
3069;DHT22;1545;51.728;8.796;2022-11-18T08:51:13;9.40;98.80
3069;DHT22;1545;51.728;8.796;2022-11-18T08:53:39;9.30;98.80
3069;DHT22;1545;51.728;8.796;2022-11-18T08:56:04;9.10;98.80
3069;DHT22;1545;51.728;8.796;2022-11-18T08:58:30;9.10;98.80
3069;DHT22;1545;51.728;8.796;2022-11-18T09:00:55;9.10;98.80
3069;DHT22;1545;51.728;8.796;2022-11-18T09:03:22;9.10;98.80
3069;DHT22;1545;51.728;8.796;2022-11-18T09:05:48;9.20;98.80
3069;DHT22;1545;51.728;8.796;2022-11-18T09:08:13;9.40;98.80
3069;DHT22;1545;51.728;8.796;2022-11-18T09:10:40;9.50;98.80
3069;DHT22;1545;51.728;8.796;2022-11-18T09:13:06;9.60;98.80
3069;DHT22;1545;51.728;8.796;2022-11-18T09:15:31;9.70;98.80
3069;DHT22;1545;51.728;8.796;2022-11-18T09:17:57;9.90;98.80
3069;DHT22;1545;51.728;8.796;2022-11-18T09:20:23;10.00;98.80
3069;DHT22;1545;51.728;8.796;2022-11-18T09:22:49;10.10;98.80
3069;DHT22;1545;51.728;8.796;2022-11-18T09:25:14;10.10;98.80
3069;DHT22;1545;51.728;8.796;2022-11-18T09:27:41;10.10;98.80
3069;DHT22;1545;51.728;8.796;2022-11-18T09:30:07;10.10;98.80
3069;DHT22;1545;51.728;8.796;2022-11-18T09:32:33;10.10;98.80
3069;DHT22;1545;51.728;8.796;2022-11-18T09:34:58;10.10;98.80
3069;DHT22;1545;51.728;8.796;2022-11-18T09:37:24;10.10;98.80
3069;DHT22;1545;51.728;8.796;2022-11-18T09:39:49;10.10;98.80
3069;DHT22;1545;51.728;8.796;2022-11-18T09:44:56;10.10;98.80
3069;DHT22;1545;51.728;8.796;2022-11-18T09:47:31;10.10;98.80
3069;DHT22;1545;51.728;8.796;2022-11-18T09:50:04;10.20;98.80
3069;DHT22;1545;51.728;8.796;2022-11-18T09:52:37;10.20;98.80
3069;DHT22;1545;51.728;8.796;2022-11-18T09:55:12;10.30;98.80
3069;DHT22;1545;51.728;8.796;2022-11-18T09:57:41;10.40;98.80
3069;DHT22;1545;51.728;8.796;2022-11-18T10:00:15;10.50;98.80
3069;DHT22;1545;51.728;8.796;2022-11-18T10:05:27;10.80;98.80
3069;DHT22;1545;51.728;8.796;2022-11-18T10:10:24;11.00;98.80
3069;DHT22;1545;51.728;8.796;2022-11-18T10:12:59;11.00;97.70
3069;DHT22;1545;51.728;8.796;2022-11-18T10:15:33;11.00;97.70
3069;DHT22;1545;51.728;8.796;2022-11-18T10:18:24;11.00;97.40
3069;DHT22;1545;51.728;8.796;2022-11-18T10:20:57;11.00;96.60
3069;DHT22;1545;51.728;8.796;2022-11-18T10:23:32;10.70;95.80
3069;DHT22;1545;51.728;8.796;2022-11-18T10:26:00;10.50;97.70
3069;DHT22;1545;51.728;8.796;2022-11-18T10:28:27;10.40;98.20
3069;DHT22;1545;51.728;8.796;2022-11-18T10:31:11;10.40;98.60
3069;DHT22;1545;51.728;8.796;2022-11-18T10:33:37;10.50;98.80
3069;DHT22;1545;51.728;8.796;2022-11-18T10:38:43;10.60;97.90
3069;DHT22;1545;51.728;8.796;2022-11-18T10:41:15;10.60;97.60
3069;DHT22;1545;51.728;8.796;2022-11-18T10:43:54;10.60;97.50
3069;DHT22;1545;51.728;8.796;2022-11-18T10:51:35;10.40;98.20
3069;DHT22;1545;51.728;8.796;2022-11-18T10:54:12;10.10;98.80
3069;DHT22;1545;51.728;8.796;2022-11-18T10:56:48;10.10;98.80
3069;DHT22;1545;51.728;8.796;2022-11-18T11:04:39;9.80;98.80
3069;DHT22;1545;51.728;8.796;2022-11-18T11:07:25;9.80;98.80
3069;DHT22;1545;51.728;8.796;2022-11-18T11:12:56;9.90;98.80
3069;DHT22;1545;51.728;8.796;2022-11-18T11:15:38;10.00;98.80
3069;DHT22;1545;51.728;8.796;2022-11-18T11:18:11;9.90;98.80
3069;DHT22;1545;51.728;8.796;2022-11-18T11:20:57;9.90;98.80
3069;DHT22;1545;51.728;8.796;2022-11-18T11:23:24;9.90;98.80
3069;DHT22;1545;51.728;8.796;2022-11-18T11:26:00;9.90;98.80
3069;DHT22;1545;51.728;8.796;2022-11-18T11:31:30;9.80;98.80
3069;DHT22;1545;51.728;8.796;2022-11-18T11:37:05;9.70;98.80
3069;DHT22;1545;51.728;8.796;2022-11-18T11:39:54;9.60;98.80
3069;DHT22;1545;51.728;8.796;2022-11-18T11:45:23;9.60;98.80
3069;DHT22;1545;51.728;8.796;2022-11-18T11:59:24;9.40;98.80
3069;DHT22;1545;51.728;8.796;2022-11-18T12:04:42;9.30;98.80
3069;DHT22;1545;51.728;8.796;2022-11-18T12:07:19;9.30;98.80
3069;DHT22;1545;51.728;8.796;2022-11-18T12:20:36;8.70;98.80
3069;DHT22;1545;51.728;8.796;2022-11-18T12:23:10;8.60;98.80
3069;DHT22;1545;51.728;8.796;2022-11-18T12:28:10;8.50;98.80
3069;DHT22;1545;51.728;8.796;2022-11-18T12:30:46;8.50;98.80
3069;DHT22;1545;51.728;8.796;2022-11-18T12:33:13;8.40;98.80
3069;DHT22;1545;51.728;8.796;2022-11-18T12:35:48;8.30;98.80
3069;DHT22;1545;51.728;8.796;2022-11-18T12:38:31;8.40;98.80
3069;DHT22;1545;51.728;8.796;2022-11-18T12:40:56;8.40;98.80
3069;DHT22;1545;51.728;8.796;2022-11-18T12:48:54;8.20;98.80
3069;DHT22;1545;51.728;8.796;2022-11-18T12:53:50;7.80;98.80
3069;DHT22;1545;51.728;8.796;2022-11-18T12:58:57;7.60;98.80
3069;DHT22;1545;51.728;8.796;2022-11-18T13:01:29;7.60;98.80
3069;DHT22;1545;51.728;8.796;2022-11-18T13:04:24;7.50;98.80
3069;DHT22;1545;51.728;8.796;2022-11-18T13:06:50;7.50;98.80
3069;DHT22;1545;51.728;8.796;2022-11-18T13:09:29;7.30;98.80
3069;DHT22;1545;51.728;8.796;2022-11-18T13:11:58;7.20;98.80
3069;DHT22;1545;51.728;8.796;2022-11-18T13:17:37;7.10;98.80
3069;DHT22;1545;51.728;8.796;2022-11-18T13:20:37;7.20;98.80
3069;DHT22;1545;51.728;8.796;2022-11-18T13:25:54;7.10;98.80
3069;DHT22;1545;51.728;8.796;2022-11-18T13:33:48;7.10;98.80
3069;DHT22;1545;51.728;8.796;2022-11-18T13:41:24;7.20;98.80
3069;DHT22;1545;51.728;8.796;2022-11-18T13:46:41;7.00;98.80
3069;DHT22;1545;51.728;8.796;2022-11-18T13:49:13;6.90;98.80
3069;DHT22;1545;51.728;8.796;2022-11-18T13:51:41;6.80;98.80
3069;DHT22;1545;51.728;8.796;2022-11-18T13:54:14;6.70;98.80
3069;DHT22;1545;51.728;8.796;2022-11-18T13:56:41;6.60;98.80
3069;DHT22;1545;51.728;8.796;2022-11-18T13:59:18;6.70;98.80
3069;DHT22;1545;51.728;8.796;2022-11-18T14:01:46;6.80;98.80
3069;DHT22;1545;51.728;8.796;2022-11-18T14:04:51;6.70;98.80
3069;DHT22;1545;51.728;8.796;2022-11-18T14:07:27;6.70;98.80
3069;DHT22;1545;51.728;8.796;2022-11-18T14:09:56;6.60;98.80
3069;DHT22;1545;51.728;8.796;2022-11-18T14:12:25;6.50;98.80
3069;DHT22;1545;51.728;8.796;2022-11-18T14:15:14;6.50;98.80
3069;DHT22;1545;51.728;8.796;2022-11-18T14:17:55;6.50;98.80
3069;DHT22;1545;51.728;8.796;2022-11-18T14:20:23;6.40;98.80
3069;DHT22;1545;51.728;8.796;2022-11-18T14:22:53;6.50;98.80
3069;DHT22;1545;51.728;8.796;2022-11-18T14:25:31;6.40;98.80
3069;DHT22;1545;51.728;8.796;2022-11-18T14:30:35;6.40;98.80
3069;DHT22;1545;51.728;8.796;2022-11-18T14:33:15;6.30;98.80
3069;DHT22;1545;51.728;8.796;2022-11-18T14:35:44;6.30;98.80
3069;DHT22;1545;51.728;8.796;2022-11-18T14:38:30;6.20;98.80
3069;DHT22;1545;51.728;8.796;2022-11-18T14:40:58;6.00;98.80
3069;DHT22;1545;51.728;8.796;2022-11-18T14:43:25;6.00;98.80
3069;DHT22;1545;51.728;8.796;2022-11-18T14:45:57;5.80;98.80
3069;DHT22;1545;51.728;8.796;2022-11-18T14:48:24;5.70;98.80
3069;DHT22;1545;51.728;8.796;2022-11-18T14:50:50;5.60;98.80
3069;DHT22;1545;51.728;8.796;2022-11-18T14:53:17;5.50;98.80
3069;DHT22;1545;51.728;8.796;2022-11-18T14:55:44;5.50;98.80
3069;DHT22;1545;51.728;8.796;2022-11-18T14:58:13;5.50;98.80
3069;DHT22;1545;51.728;8.796;2022-11-18T15:00:41;5.40;98.80
3069;DHT22;1545;51.728;8.796;2022-11-18T15:03:07;5.40;98.80
3069;DHT22;1545;51.728;8.796;2022-11-18T15:05:33;5.30;98.80
3069;DHT22;1545;51.728;8.796;2022-11-18T15:07:58;5.30;98.80
3069;DHT22;1545;51.728;8.796;2022-11-18T15:10:24;5.30;98.80
3069;DHT22;1545;51.728;8.796;2022-11-18T15:12:49;5.30;98.80
3069;DHT22;1545;51.728;8.796;2022-11-18T15:15:15;5.20;98.80
3069;DHT22;1545;51.728;8.796;2022-11-18T15:17:40;5.00;98.80
3069;DHT22;1545;51.728;8.796;2022-11-18T15:20:12;4.90;98.80
3069;DHT22;1545;51.728;8.796;2022-11-18T15:22:38;4.80;98.80
3069;DHT22;1545;51.728;8.796;2022-11-18T15:25:04;4.80;98.80
3069;DHT22;1545;51.728;8.796;2022-11-18T15:27:30;4.70;98.80
3069;DHT22;1545;51.728;8.796;2022-11-18T15:29:56;4.70;98.80
3069;DHT22;1545;51.728;8.796;2022-11-18T15:32:21;4.70;98.80
3069;DHT22;1545;51.728;8.796;2022-11-18T15:34:47;4.60;98.80
3069;DHT22;1545;51.728;8.796;2022-11-18T15:37:12;4.60;98.80
3069;DHT22;1545;51.728;8.796;2022-11-18T15:39:38;4.50;98.80
3069;DHT22;1545;51.728;8.796;2022-11-18T15:42:04;4.50;98.80
3069;DHT22;1545;51.728;8.796;2022-11-18T15:44:29;4.50;98.80
3069;DHT22;1545;51.728;8.796;2022-11-18T15:46:55;4.40;98.80
3069;DHT22;1545;51.728;8.796;2022-11-18T15:49:21;4.50;98.80
3069;DHT22;1545;51.728;8.796;2022-11-18T15:51:47;4.50;98.80
3069;DHT22;1545;51.728;8.796;2022-11-18T15:54:13;4.50;98.80
3069;DHT22;1545;51.728;8.796;2022-11-18T15:56:38;4.50;98.80
3069;DHT22;1545;51.728;8.796;2022-11-18T15:59:10;4.50;98.80
3069;DHT22;1545;51.728;8.796;2022-11-18T16:01:38;4.50;98.80
3069;DHT22;1545;51.728;8.796;2022-11-18T16:04:06;4.60;98.80
3069;DHT22;1545;51.728;8.796;2022-11-18T16:06:32;4.60;98.80
3069;DHT22;1545;51.728;8.796;2022-11-18T16:08:58;4.60;98.80
3069;DHT22;1545;51.728;8.796;2022-11-18T16:11:25;4.70;98.80
3069;DHT22;1545;51.728;8.796;2022-11-18T16:14:11;4.70;98.80
3069;DHT22;1545;51.728;8.796;2022-11-18T16:16:38;4.70;98.80
3069;DHT22;1545;51.728;8.796;2022-11-18T16:19:06;4.60;98.80
3069;DHT22;1545;51.728;8.796;2022-11-18T16:21:35;4.50;98.80
3069;DHT22;1545;51.728;8.796;2022-11-18T16:24:03;4.40;98.80
3069;DHT22;1545;51.728;8.796;2022-11-18T16:26:31;4.30;98.80
3069;DHT22;1545;51.728;8.796;2022-11-18T16:28:58;4.30;98.80
3069;DHT22;1545;51.728;8.796;2022-11-18T16:31:24;4.30;98.80
3069;DHT22;1545;51.728;8.796;2022-11-18T16:34:36;4.30;98.80
3069;DHT22;1545;51.728;8.796;2022-11-18T16:37:02;4.20;98.80
3069;DHT22;1545;51.728;8.796;2022-11-18T16:39:29;4.20;98.80
3069;DHT22;1545;51.728;8.796;2022-11-18T16:42:00;4.20;98.80
3069;DHT22;1545;51.728;8.796;2022-11-18T16:44:26;4.30;98.80
3069;DHT22;1545;51.728;8.796;2022-11-18T16:46:54;4.30;98.80
3069;DHT22;1545;51.728;8.796;2022-11-18T16:49:24;4.30;98.80
3069;DHT22;1545;51.728;8.796;2022-11-18T16:51:52;4.20;98.80
3069;DHT22;1545;51.728;8.796;2022-11-18T16:54:20;4.20;98.80
3069;DHT22;1545;51.728;8.796;2022-11-18T16:56:48;4.20;98.80
3069;DHT22;1545;51.728;8.796;2022-11-18T16:59:21;4.20;98.80
3069;DHT22;1545;51.728;8.796;2022-11-18T17:01:48;4.10;98.80
3069;DHT22;1545;51.728;8.796;2022-11-18T17:04:14;4.00;98.80
3069;DHT22;1545;51.728;8.796;2022-11-18T17:06:40;3.90;98.80
3069;DHT22;1545;51.728;8.796;2022-11-18T17:09:08;3.90;98.80
3069;DHT22;1545;51.728;8.796;2022-11-18T17:11:36;3.80;98.80
3069;DHT22;1545;51.728;8.796;2022-11-18T17:14:02;3.80;98.80
3069;DHT22;1545;51.728;8.796;2022-11-18T17:16:27;3.70;98.80
3069;DHT22;1545;51.728;8.796;2022-11-18T17:18:58;3.60;98.80
3069;DHT22;1545;51.728;8.796;2022-11-18T17:21:25;3.70;98.80
3069;DHT22;1545;51.728;8.796;2022-11-18T17:23:51;3.70;98.80
3069;DHT22;1545;51.728;8.796;2022-11-18T17:26:19;3.70;98.80
3069;DHT22;1545;51.728;8.796;2022-11-18T17:28:45;3.60;98.80
3069;DHT22;1545;51.728;8.796;2022-11-18T17:31:13;3.60;98.80
3069;DHT22;1545;51.728;8.796;2022-11-18T17:33:40;3.50;98.80
3069;DHT22;1545;51.728;8.796;2022-11-18T17:36:16;3.50;98.80
3069;DHT22;1545;51.728;8.796;2022-11-18T17:38:44;3.50;98.80
3069;DHT22;1545;51.728;8.796;2022-11-18T17:41:13;3.40;98.80
3069;DHT22;1545;51.728;8.796;2022-11-18T17:44:00;3.40;98.80
3069;DHT22;1545;51.728;8.796;2022-11-18T17:46:26;3.30;98.80
3069;DHT22;1545;51.728;8.796;2022-11-18T17:48:56;3.30;98.80
3069;DHT22;1545;51.728;8.796;2022-11-18T17:51:23;3.20;98.80
3069;DHT22;1545;51.728;8.796;2022-11-18T17:53:49;3.10;98.80
3069;DHT22;1545;51.728;8.796;2022-11-18T17:56:16;3.10;98.80
3069;DHT22;1545;51.728;8.796;2022-11-18T17:58:41;3.10;98.80
3069;DHT22;1545;51.728;8.796;2022-11-18T18:01:12;3.00;98.80
3069;DHT22;1545;51.728;8.796;2022-11-18T18:03:38;2.90;98.80
3069;DHT22;1545;51.728;8.796;2022-11-18T18:06:04;2.90;98.80
3069;DHT22;1545;51.728;8.796;2022-11-18T18:08:31;2.80;98.80
3069;DHT22;1545;51.728;8.796;2022-11-18T18:11:11;2.80;98.80
3069;DHT22;1545;51.728;8.796;2022-11-18T18:13:37;2.80;98.80
3069;DHT22;1545;51.728;8.796;2022-11-18T18:16:22;2.80;98.80
3069;DHT22;1545;51.728;8.796;2022-11-18T18:18:48;2.80;98.80
3069;DHT22;1545;51.728;8.796;2022-11-18T18:21:14;2.70;98.80